Time;durP1;ratioP1;P1;durP2;ratioP2;P2;SDS_P1;SDS_P2;PMS_P1;PMS_P2;Temp;Humidity;BMP_temperature;BMP_pressure;BME280_temperature;BME280_humidity;BME280_pressure;Samples;Min_cycle;Max_cycle;Signal;HPM_P1;HPM_P2
2023/04/11 00:00:19;;;;;;;5.70;1.93;;;9.70;99.90;;;;;;5034634;28;20543;-52
2023/04/11 00:02:45;;;;;;;6.73;1.60;;;9.80;99.90;;;;;;5034076;28;20204;-51
2023/04/11 00:05:11;;;;;;;7.00;2.10;;;9.70;99.90;;;;;;5034218;28;20247;-51
2023/04/11 00:07:37;;;;;;;4.47;1.43;;;9.70;99.90;;;;;;5034169;28;20180;-51
2023/04/11 00:10:03;;;;;;;8.17;1.73;;;9.70;99.90;;;;;;5034363;28;20177;-51
2023/04/11 00:12:29;;;;;;;8.20;1.90;;;9.80;99.90;;;;;;5033960;28;20208;-50
2023/04/11 00:14:54;;;;;;;10.57;1.93;;;9.90;99.90;;;;;;5033671;28;20243;-46
2023/04/11 00:17:20;;;;;;;8.30;1.37;;;9.90;99.90;;;;;;5033904;28;20204;-47
2023/04/11 00:19:47;;;;;;;5.13;1.83;;;9.80;99.90;;;;;;5034224;28;20184;-43
2023/04/11 00:22:15;;;;;;;8.67;1.50;;;9.80;99.90;;;;;;5033358;28;20571;-45
2023/04/11 00:24:40;;;;;;;14.30;1.83;;;9.80;99.90;;;;;;5033604;28;20172;-44
2023/04/11 00:27:06;;;;;;;10.23;1.80;;;9.80;99.90;;;;;;5033631;28;20188;-45
2023/04/11 00:29:33;;;;;;;7.97;1.53;;;9.80;99.90;;;;;;5033556;28;20225;-46
2023/04/11 00:31:59;;;;;;;9.83;2.00;;;9.80;99.90;;;;;;5033705;28;20201;-46
2023/04/11 00:34:26;;;;;;;6.93;2.10;;;9.80;99.90;;;;;;5033756;28;20192;-46
2023/04/11 00:36:51;;;;;;;4.90;1.67;;;9.80;99.90;;;;;;5033423;28;20219;-45
2023/04/11 00:39:19;;;;;;;5.17;1.77;;;9.80;99.90;;;;;;5033386;28;20211;-44
2023/04/11 00:41:45;;;;;;;6.20;1.17;;;9.80;99.90;;;;;;5033607;28;20223;-44
2023/04/11 00:44:10;;;;;;;7.57;1.47;;;9.80;99.90;;;;;;5033697;28;20177;-47
2023/04/11 00:46:38;;;;;;;7.73;1.73;;;9.80;99.90;;;;;;5033598;28;20665;-46
2023/04/11 00:49:03;;;;;;;8.37;1.90;;;9.80;99.90;;;;;;5033670;28;20628;-45
2023/04/11 00:51:29;;;;;;;9.57;1.97;;;9.70;99.90;;;;;;5033520;28;20274;-47
2023/04/11 00:53:55;;;;;;;11.03;2.10;;;9.60;99.90;;;;;;5033284;28;20687;-44
2023/04/11 00:56:21;;;;;;;9.93;2.00;;;9.70;99.90;;;;;;5033460;28;20196;-44
2023/04/11 00:58:47;;;;;;;8.53;2.10;;;9.60;99.90;;;;;;5033254;28;20263;-43
2023/04/11 01:01:15;;;;;;;5.53;1.57;;;9.60;99.90;;;;;;5015372;28;20335;-45
2023/04/11 01:03:41;;;;;;;11.20;1.73;;;9.60;99.90;;;;;;5033393;28;20191;-48
2023/04/11 01:06:10;;;;;;;8.57;1.87;;;9.50;99.90;;;;;;5033683;28;20187;-46
2023/04/11 01:08:37;;;;;;;14.17;1.83;;;9.60;99.90;;;;;;5033084;28;20264;-46
2023/04/11 01:11:03;;;;;;;10.03;1.90;;;9.60;99.90;;;;;;5033018;28;20640;-44
2023/04/11 01:13:34;;;;;;;12.23;2.53;;;9.60;99.90;;;;;;5033021;28;20205;-46
2023/04/11 01:16:00;;;;;;;14.43;2.60;;;9.60;99.90;;;;;;5033257;28;20253;-45
2023/04/11 01:18:25;;;;;;;14.93;2.77;;;9.70;99.90;;;;;;5033816;28;20184;-44
2023/04/11 01:20:52;;;;;;;10.47;2.20;;;9.60;99.90;;;;;;5033021;28;20183;-45
2023/04/11 01:23:23;;;;;;;11.50;2.30;;;9.60;99.90;;;;;;5033305;28;20211;-45
2023/04/11 01:25:49;;;;;;;14.93;2.57;;;9.60;99.90;;;;;;5032967;28;20170;-46
2023/04/11 01:28:15;;;;;;;9.83;2.10;;;9.60;99.90;;;;;;5015200;28;20191;-45
2023/04/11 01:30:40;;;;;;;9.93;2.00;;;9.60;99.90;;;;;;5033031;28;20173;-47
2023/04/11 01:33:06;;;;;;;13.07;2.83;;;9.60;99.90;;;;;;5032865;28;20200;-45
2023/04/11 01:35:31;;;;;;;14.63;2.10;;;9.60;99.90;;;;;;5035033;28;20284;-46
2023/04/11 01:37:57;;;;;;;11.60;2.20;;;9.60;99.90;;;;;;5036852;28;20208;-45
2023/04/11 01:40:23;;;;;;;11.07;2.73;;;9.50;99.90;;;;;;5036607;28;20165;-46
2023/04/11 01:42:50;;;;;;;15.23;3.03;;;9.50;99.90;;;;;;5036571;28;20697;-45
2023/04/11 01:45:17;;;;;;;13.00;2.20;;;9.50;99.90;;;;;;5036765;28;20188;-46
2023/04/11 01:47:44;;;;;;;10.53;3.30;;;9.50;99.90;;;;;;5036795;28;20187;-46
2023/04/11 01:50:10;;;;;;;8.57;2.30;;;9.40;99.90;;;;;;5036511;28;20188;-46
2023/04/11 01:52:36;;;;;;;14.93;3.03;;;9.30;99.90;;;;;;5036623;28;20207;-46
2023/04/11 01:55:02;;;;;;;17.27;2.70;;;9.30;99.90;;;;;;5036544;28;20188;-46
2023/04/11 01:57:28;;;;;;;11.27;2.10;;;9.30;99.90;;;;;;5037768;28;20303;-46
2023/04/11 01:59:53;;;;;;;15.47;2.87;;;9.20;99.90;;;;;;5037436;28;20205;-46
2023/04/11 02:02:19;;;;;;;13.33;3.07;;;9.20;99.90;;;;;;5036161;28;20192;-46
2023/04/11 02:04:45;;;;;;;15.67;2.70;;;9.20;99.90;;;;;;5036420;28;20188;-47
2023/04/11 02:07:11;;;;;;;14.87;2.67;;;9.20;99.90;;;;;;5036406;28;20186;-46
2023/04/11 02:09:36;;;;;;;15.00;2.93;;;9.10;99.90;;;;;;5036021;28;20183;-45
2023/04/11 02:12:02;;;;;;;13.53;2.03;;;9.10;99.90;;;;;;5036228;28;20231;-48
2023/04/11 02:14:42;;;;;;;13.83;2.57;;;9.10;99.90;;;;;;5035891;28;20670;-46
2023/04/11 02:17:09;;;;;;;16.03;3.17;;;9.10;99.90;;;;;;5036184;28;20247;-47
2023/04/11 02:19:35;;;;;;;15.50;2.60;;;9.10;99.90;;;;;;5036151;28;20192;-47
2023/04/11 02:22:01;;;;;;;15.97;3.37;;;9.10;99.90;;;;;;5036205;28;20660;-45
2023/04/11 02:24:27;;;;;;;12.33;2.70;;;9.00;99.90;;;;;;5035833;28;20194;-48
2023/04/11 02:26:53;;;;;;;20.37;2.83;;;8.90;99.90;;;;;;5036591;28;20208;-45
2023/04/11 02:29:19;;;;;;;13.60;3.00;;;8.90;99.90;;;;;;5036016;28;20252;-47
2023/04/11 02:31:47;;;;;;;13.07;3.10;;;8.90;99.90;;;;;;5035969;28;20683;-46
2023/04/11 02:34:13;;;;;;;11.37;2.67;;;8.90;99.90;;;;;;5035941;28;20548;-45
2023/04/11 02:36:40;;;;;;;12.70;2.37;;;8.90;99.90;;;;;;5035528;28;20671;-44
2023/04/11 02:39:06;;;;;;;12.57;3.37;;;8.80;99.90;;;;;;5035847;28;20184;-46
2023/04/11 02:41:32;;;;;;;14.77;3.50;;;8.80;99.90;;;;;;5035670;28;20210;-44
2023/04/11 02:43:58;;;;;;;13.07;2.43;;;8.80;99.90;;;;;;5035733;28;20177;-44
2023/04/11 02:46:23;;;;;;;12.37;2.53;;;8.80;99.90;;;;;;5034931;28;20179;-43
2023/04/11 02:48:49;;;;;;;16.87;2.60;;;8.70;99.90;;;;;;5035373;28;20208;-46
2023/04/11 02:51:14;;;;;;;17.20;2.87;;;8.70;99.90;;;;;;5035262;28;20665;-44
2023/04/11 02:53:40;;;;;;;21.07;3.40;;;8.70;99.90;;;;;;5035268;28;20234;-47
2023/04/11 02:56:09;;;;;;;17.33;2.83;;;8.60;99.90;;;;;;5035435;28;20361;-45
2023/04/11 02:58:37;;;;;;;13.23;3.00;;;8.60;99.90;;;;;;5035412;28;20180;-44
2023/04/11 03:01:05;;;;;;;14.00;2.70;;;8.60;99.90;;;;;;5035315;28;20184;-44
2023/04/11 03:03:30;;;;;;;13.27;2.73;;;8.60;99.90;;;;;;5035064;28;20266;-44
2023/04/11 03:05:57;;;;;;;18.30;3.00;;;8.50;99.90;;;;;;5035276;28;20218;-45
2023/04/11 03:08:22;;;;;;;18.37;3.57;;;8.50;99.90;;;;;;5035061;28;20573;-45
2023/04/11 03:10:48;;;;;;;13.57;2.10;;;8.50;99.90;;;;;;5035232;28;20254;-45
2023/04/11 03:13:14;;;;;;;18.63;3.80;;;8.50;99.90;;;;;;5034789;28;20194;-46
2023/04/11 03:15:40;;;;;;;17.17;3.40;;;8.60;99.90;;;;;;5035143;28;20169;-48
2023/04/11 03:18:05;;;;;;;12.47;2.83;;;8.60;99.90;;;;;;5034776;28;20207;-45
2023/04/11 03:20:31;;;;;;;15.30;2.63;;;8.60;99.90;;;;;;5035016;28;20549;-44
2023/04/11 03:22:57;;;;;;;14.80;2.80;;;8.60;99.90;;;;;;5034595;28;20201;-45
2023/04/11 03:25:22;;;;;;;14.60;3.00;;;8.60;99.90;;;;;;5034632;28;20176;-45
2023/04/11 03:27:48;;;;;;;17.37;2.97;;;8.60;99.90;;;;;;5034609;28;20170;-46
2023/04/11 03:30:13;;;;;;;14.00;2.33;;;8.50;99.90;;;;;;5034593;28;20242;-45
2023/04/11 03:32:39;;;;;;;11.90;2.93;;;8.50;99.90;;;;;;5034370;28;20565;-47
2023/04/11 03:35:05;;;;;;;16.20;2.93;;;8.50;99.90;;;;;;5034738;28;20191;-48
2023/04/11 03:37:31;;;;;;;6.63;1.70;;;8.60;99.90;;;;;;5034280;28;20537;-45
2023/04/11 03:39:56;;;;;;;14.93;3.07;;;8.60;99.90;;;;;;5034920;28;20240;-46
2023/04/11 03:42:22;;;;;;;17.43;2.90;;;8.60;99.90;;;;;;5034375;28;20191;-43
2023/04/11 03:44:47;;;;;;;23.33;3.33;;;8.60;99.90;;;;;;5034495;28;20184;-45
2023/04/11 03:47:13;;;;;;;15.13;2.67;;;8.60;99.90;;;;;;5034619;28;20184;-44
2023/04/11 03:49:38;;;;;;;13.00;2.40;;;8.70;99.90;;;;;;5034599;28;20179;-44
2023/04/11 03:52:06;;;;;;;12.90;2.17;;;8.70;99.90;;;;;;5034062;28;20202;-45
2023/04/11 03:54:32;;;;;;;8.40;1.93;;;8.70;99.90;;;;;;5034636;28;20178;-46
2023/04/11 03:56:57;;;;;;;10.10;2.77;;;8.70;99.90;;;;;;5033409;28;20202;-46
2023/04/11 03:59:23;;;;;;;12.43;3.03;;;8.70;99.90;;;;;;5033862;28;20259;-45
2023/04/11 04:01:48;;;;;;;20.37;3.00;;;8.70;99.90;;;;;;5033877;28;20560;-45
2023/04/11 04:04:14;;;;;;;16.27;2.37;;;8.70;99.90;;;;;;5033996;28;20183;-45
2023/04/11 04:06:40;;;;;;;17.77;2.90;;;8.70;99.90;;;;;;5034159;28;20202;-46
2023/04/11 04:09:06;;;;;;;13.70;3.33;;;8.60;99.90;;;;;;5033857;28;20177;-46
2023/04/11 04:11:32;;;;;;;15.67;2.57;;;8.60;99.90;;;;;;5034388;28;20202;-46
2023/04/11 04:13:57;;;;;;;17.43;2.90;;;8.60;99.90;;;;;;5033808;28;20656;-47
2023/04/11 04:16:23;;;;;;;17.40;2.57;;;8.60;99.90;;;;;;5033928;28;20688;-45
2023/04/11 04:18:48;;;;;;;17.60;3.07;;;8.60;99.90;;;;;;5033982;28;20253;-47
2023/04/11 04:21:14;;;;;;;10.23;2.43;;;8.60;99.90;;;;;;5033599;28;20276;-47
2023/04/11 04:23:46;;;;;;;18.03;3.27;;;8.60;99.90;;;;;;5015887;28;20259;-47
2023/04/11 04:26:15;;;;;;;18.07;2.43;;;8.60;99.90;;;;;;5033941;28;20199;-46
2023/04/11 04:28:45;;;;;;;12.50;2.47;;;8.60;99.90;;;;;;5033603;28;20190;-46
2023/04/11 04:31:12;;;;;;;13.40;3.07;;;8.60;99.90;;;;;;5033759;28;20606;-46
2023/04/11 04:33:41;;;;;;;11.97;2.80;;;8.60;99.90;;;;;;5033790;28;20184;-47
2023/04/11 04:36:08;;;;;;;22.30;2.60;;;8.60;99.90;;;;;;5033398;28;20292;-46
2023/04/11 04:38:37;;;;;;;6.43;1.93;;;8.60;99.90;;;;;;5033661;28;20231;-47
2023/04/11 04:41:04;;;;;;;16.83;2.97;;;8.60;99.90;;;;;;5033605;28;20181;-45
2023/04/11 04:43:31;;;;;;;13.70;2.43;;;8.60;99.90;;;;;;5033386;28;20179;-48
2023/04/11 04:45:57;;;;;;;15.67;3.73;;;8.60;99.90;;;;;;5033655;28;20548;-46
2023/04/11 04:48:24;;;;;;;15.17;4.03;;;8.60;99.90;;;;;;5033549;28;20183;-45
2023/04/11 04:50:50;;;;;;;12.63;4.13;;;8.60;99.90;;;;;;5033323;28;20260;-48
2023/04/11 04:53:15;;;;;;;10.07;2.63;;;8.50;99.90;;;;;;5033231;28;20204;-47
2023/04/11 04:55:41;;;;;;;16.00;3.13;;;8.50;99.90;;;;;;5033297;28;20299;-45
2023/04/11 04:58:06;;;;;;;9.17;2.83;;;8.50;99.90;;;;;;5033203;28;20692;-45
2023/04/11 05:00:32;;;;;;;13.17;3.00;;;8.50;99.90;;;;;;5033270;28;20269;-47
2023/04/11 05:02:58;;;;;;;14.50;3.03;;;8.50;99.90;;;;;;5033439;28;20213;-45
2023/04/11 05:05:23;;;;;;;12.43;2.80;;;8.50;99.90;;;;;;5034270;28;20179;-44
2023/04/11 05:07:49;;;;;;;16.03;3.27;;;8.50;99.90;;;;;;5033220;28;20206;-45
2023/04/11 05:10:14;;;;;;;13.17;2.87;;;8.50;99.90;;;;;;5036801;28;20218;-45
2023/04/11 05:12:40;;;;;;;15.53;3.57;;;8.50;99.90;;;;;;5038561;28;20215;-45
2023/04/11 05:15:10;;;;;;;18.97;6.70;;;8.50;99.90;;;;;;5038783;28;20580;-50
2023/04/11 05:17:35;;;;;;;23.63;7.20;;;8.50;99.90;;;;;;5037555;28;20211;-50
2023/04/11 05:20:01;;;;;;;19.10;4.37;;;8.50;99.90;;;;;;5037327;28;20178;-50
2023/04/11 05:22:26;;;;;;;20.20;3.60;;;8.50;99.90;;;;;;5037227;28;20209;-49
2023/04/11 05:24:52;;;;;;;15.83;3.73;;;8.50;99.90;;;;;;5036916;28;20181;-50
2023/04/11 05:27:18;;;;;;;9.73;3.00;;;8.50;99.90;;;;;;5036887;28;20236;-51
2023/04/11 05:29:44;;;;;;;12.80;2.93;;;8.50;99.90;;;;;;5036794;28;20188;-49
2023/04/11 05:32:10;;;;;;;14.27;2.57;;;8.50;99.90;;;;;;5037018;28;20293;-49
2023/04/11 05:34:50;;;;;;;14.40;3.40;;;8.50;99.90;;;;;;5037074;28;20627;-50
2023/04/11 05:37:15;;;;;;;19.80;3.47;;;8.50;99.90;;;;;;5036729;28;20201;-50
2023/04/11 05:39:41;;;;;;;11.50;3.40;;;8.50;99.90;;;;;;5036658;28;20173;-51
2023/04/11 05:42:06;;;;;;;9.13;2.40;;;8.50;99.90;;;;;;5036679;28;20212;-50
2023/04/11 05:44:32;;;;;;;11.70;3.10;;;8.50;99.90;;;;;;5036581;28;20178;-50
2023/04/11 05:46:57;;;;;;;11.33;3.33;;;8.50;99.90;;;;;;5036773;28;20186;-49
2023/04/11 05:49:23;;;;;;;9.80;2.50;;;8.50;99.90;;;;;;5036713;28;20269;-50
2023/04/11 05:51:48;;;;;;;3.30;1.43;;;8.50;99.90;;;;;;5036405;28;20252;-51
2023/04/11 05:54:33;;;;;;;13.63;3.03;;;8.60;99.90;;;;;;5036942;28;20187;-49
2023/04/11 05:57:00;;;;;;;16.73;2.80;;;8.60;99.90;;;;;;5036576;28;20658;-50
2023/04/11 05:59:27;;;;;;;10.63;2.30;;;8.60;99.90;;;;;;5036298;28;20359;-50
2023/04/11 06:01:53;;;;;;;12.60;2.77;;;8.60;99.90;;;;;;5036436;28;20664;-51
2023/04/11 06:04:19;;;;;;;8.43;2.43;;;8.50;99.90;;;;;;5036456;28;20193;-50
2023/04/11 06:06:45;;;;;;;8.57;2.90;;;8.60;99.90;;;;;;5036482;28;20189;-49
2023/04/11 06:09:11;;;;;;;8.93;2.77;;;8.50;99.90;;;;;;5036375;28;20211;-50
2023/04/11 06:11:36;;;;;;;13.30;3.17;;;8.60;99.90;;;;;;5036237;28;20582;-49
2023/04/11 06:14:02;;;;;;;12.07;2.30;;;8.60;99.90;;;;;;5036041;28;20196;-50
2023/04/11 06:16:28;;;;;;;14.50;2.90;;;8.60;99.90;;;;;;5036197;28;20221;-51
2023/04/11 06:18:53;;;;;;;12.93;2.97;;;8.60;99.90;;;;;;5036785;28;20211;-51
2023/04/11 06:21:19;;;;;;;17.23;3.43;;;8.60;99.90;;;;;;5035017;28;20206;-49
2023/04/11 06:23:44;;;;;;;14.50;3.27;;;8.60;99.90;;;;;;5035887;28;20651;-50
2023/04/11 06:26:10;;;;;;;12.60;2.40;;;8.70;99.90;;;;;;5036396;28;20620;-51
2023/04/11 06:28:36;;;;;;;14.17;2.93;;;8.70;99.90;;;;;;5035786;28;20190;-50
2023/04/11 06:31:02;;;;;;;17.37;2.60;;;8.70;99.90;;;;;;5035801;28;20271;-51
2023/04/11 06:33:27;;;;;;;14.07;3.23;;;8.70;99.90;;;;;;5035932;28;20269;-51
2023/04/11 06:35:53;;;;;;;15.60;2.80;;;8.70;99.90;;;;;;5035835;28;20236;-49
2023/04/11 06:38:18;;;;;;;10.93;3.00;;;8.80;99.90;;;;;;5035605;28;20234;-51
2023/04/11 06:40:44;;;;;;;19.80;3.23;;;8.80;99.90;;;;;;5035645;28;20201;-50
2023/04/11 06:43:10;;;;;;;13.17;3.03;;;8.90;99.90;;;;;;5035382;28;20207;-51
2023/04/11 06:45:35;;;;;;;8.63;2.23;;;8.90;99.90;;;;;;5035430;28;20178;-51
2023/04/11 06:48:01;;;;;;;12.47;2.17;;;8.90;99.90;;;;;;5035675;28;20280;-51
2023/04/11 06:50:26;;;;;;;10.87;2.13;;;9.00;99.90;;;;;;5035621;28;20260;-51
2023/04/11 06:52:52;;;;;;;10.80;2.13;;;9.10;99.90;;;;;;5035243;28;20307;-50
2023/04/11 06:55:17;;;;;;;13.53;2.33;;;9.10;99.90;;;;;;5035551;28;20225;-50
2023/04/11 06:57:43;;;;;;;9.60;1.93;;;9.30;99.90;;;;;;5035157;28;20775;-49
2023/04/11 07:00:11;;;;;;;13.17;2.40;;;9.40;99.90;;;;;;5035453;28;20648;-52
2023/04/11 07:02:37;;;;;;;12.27;2.23;;;9.40;99.90;;;;;;5035207;28;20202;-51
2023/04/11 07:05:04;;;;;;;13.10;2.50;;;9.50;99.90;;;;;;5035350;28;20191;-51
2023/04/11 07:07:30;;;;;;;7.37;1.80;;;9.60;99.90;;;;;;5035317;28;20627;-50
2023/04/11 07:09:56;;;;;;;8.90;2.03;;;9.70;99.90;;;;;;5035332;28;20193;-51
2023/04/11 07:12:21;;;;;;;3.83;1.47;;;9.90;99.90;;;;;;5035103;28;20718;-49
2023/04/11 07:14:47;;;;;;;9.07;2.20;;;10.00;99.90;;;;;;5034809;28;20203;-50
2023/04/11 07:17:13;;;;;;;12.80;3.13;;;10.10;99.90;;;;;;5034768;28;20660;-51
2023/04/11 07:19:38;;;;;;;8.20;2.30;;;10.30;99.90;;;;;;5035337;28;20180;-51
2023/04/11 07:22:04;;;;;;;26.33;3.40;;;10.40;99.90;;;;;;5034670;28;20211;-49
2023/04/11 07:24:30;;;;;;;10.03;2.47;;;10.40;99.90;;;;;;5034725;28;20180;-49
2023/04/11 07:26:57;;;;;;;18.00;2.80;;;10.60;99.90;;;;;;5034896;28;20268;-49
2023/04/11 07:29:23;;;;;;;19.30;2.63;;;10.70;99.90;;;;;;5034526;28;20275;-50
2023/04/11 07:31:50;;;;;;;8.73;2.20;;;10.80;99.90;;;;;;5034526;28;20200;-51
2023/04/11 07:34:15;;;;;;;10.07;1.97;;;10.80;99.90;;;;;;5034769;28;20199;-49
2023/04/11 07:36:41;;;;;;;10.63;2.67;;;10.80;99.90;;;;;;5034961;28;20201;-50
2023/04/11 07:39:08;;;;;;;16.37;2.53;;;10.80;99.90;;;;;;5034697;28;20185;-49
2023/04/11 07:41:35;;;;;;;13.47;2.87;;;10.90;99.90;;;;;;5034566;28;20208;-50
2023/04/11 07:44:02;;;;;;;14.20;2.60;;;10.90;99.90;;;;;;5034372;28;20188;-50
2023/04/11 07:46:27;;;;;;;13.23;2.43;;;10.90;99.90;;;;;;5034285;28;20185;-49
2023/04/11 07:48:53;;;;;;;7.63;1.80;;;10.90;99.90;;;;;;5034244;28;20188;-50
2023/04/11 07:51:18;;;;;;;6.77;1.63;;;11.00;99.90;;;;;;5034660;28;20288;-49
2023/04/11 07:53:44;;;;;;;11.03;1.77;;;11.10;99.90;;;;;;5034184;28;20275;-49
2023/04/11 07:56:10;;;;;;;14.47;2.77;;;11.20;99.90;;;;;;5034287;28;20181;-51
2023/04/11 07:58:35;;;;;;;12.00;3.10;;;11.30;99.90;;;;;;5034022;28;20169;-49
2023/04/11 08:01:01;;;;;;;10.33;2.17;;;11.50;99.90;;;;;;5034163;28;20173;-49
2023/04/11 08:03:27;;;;;;;12.80;2.23;;;11.60;99.90;;;;;;5033989;28;20200;-48
2023/04/11 08:05:52;;;;;;;16.13;2.37;;;11.60;99.90;;;;;;5034037;28;20200;-49
2023/04/11 08:08:18;;;;;;;12.27;2.00;;;11.70;99.90;;;;;;5033870;28;20177;-49
2023/04/11 08:10:44;;;;;;;11.10;2.40;;;11.60;99.90;;;;;;5033833;28;20191;-48
2023/04/11 08:13:09;;;;;;;8.50;1.73;;;11.70;99.90;;;;;;5033834;28;20216;-49
2023/04/11 08:15:37;;;;;;;9.87;1.87;;;11.80;99.90;;;;;;5034083;28;20212;-50
2023/04/11 08:18:04;;;;;;;8.07;1.50;;;11.80;99.90;;;;;;5033959;28;20209;-49
2023/04/11 08:20:30;;;;;;;12.77;1.83;;;11.90;99.90;;;;;;5033921;28;20181;-49
2023/04/11 08:22:55;;;;;;;6.60;1.50;;;11.90;99.90;;;;;;5033603;28;20197;-48
2023/04/11 08:25:21;;;;;;;13.37;2.10;;;11.90;99.90;;;;;;5033913;28;20508;-51
2023/04/11 08:27:48;;;;;;;9.27;2.00;;;11.90;99.90;;;;;;5033876;28;20588;-50
2023/04/11 08:30:14;;;;;;;10.50;2.10;;;11.90;99.90;;;;;;5033585;28;20286;-49
2023/04/11 08:32:41;;;;;;;11.67;2.17;;;12.00;99.90;;;;;;5033492;28;20204;-51
2023/04/11 08:35:07;;;;;;;9.90;2.03;;;12.00;99.90;;;;;;5034015;28;20576;-48
2023/04/11 08:37:32;;;;;;;11.80;1.70;;;12.00;99.90;;;;;;5034236;28;20206;-50
2023/04/11 08:39:58;;;;;;;9.63;1.87;;;11.80;99.90;;;;;;5034675;28;20176;-50
2023/04/11 08:42:28;;;;;;;9.87;2.03;;;11.80;99.90;;;;;;5033654;28;20192;-49
2023/04/11 08:44:54;;;;;;;3.90;1.47;;;11.70;99.90;;;;;;5033312;28;20161;-50
2023/04/11 08:47:20;;;;;;;7.97;2.20;;;11.70;99.90;;;;;;5033413;28;20180;-49
2023/04/11 08:49:46;;;;;;;7.43;2.07;;;11.80;99.90;;;;;;5033290;28;20188;-49
2023/04/11 08:52:12;;;;;;;8.10;1.87;;;11.90;99.90;;;;;;5033555;28;20204;-50
2023/04/11 08:54:37;;;;;;;4.73;1.33;;;12.00;99.90;;;;;;5015645;28;20557;-49
2023/04/11 08:57:03;;;;;;;8.83;2.60;;;11.90;99.90;;;;;;5033113;28;20196;-49
2023/04/11 08:59:29;;;;;;;7.27;1.70;;;12.00;99.90;;;;;;5033517;28;20180;-50
2023/04/11 09:02:15;;;;;;;8.50;1.90;;;12.10;99.90;;;;;;5033456;28;20204;-50
2023/04/11 09:04:41;;;;;;;9.17;2.17;;;12.00;99.90;;;;;;5033000;28;20651;-50
2023/04/11 09:07:07;;;;;;;8.73;1.90;;;12.00;99.90;;;;;;5033768;28;20267;-50
2023/04/11 09:09:36;;;;;;;6.80;2.23;;;11.90;99.90;;;;;;5033170;28;20219;-49
2023/04/11 09:12:03;;;;;;;6.87;1.67;;;12.00;99.90;;;;;;5033385;28;20207;-50
2023/04/11 09:14:29;;;;;;;7.30;1.47;;;12.20;99.90;;;;;;5033023;28;20210;-49
2023/04/11 09:17:00;;;;;;;5.63;1.63;;;12.20;99.90;;;;;;5033271;28;20211;-50
2023/04/11 09:19:27;;;;;;;7.80;2.03;;;12.30;99.90;;;;;;5033073;28;20315;-50
2023/04/11 09:22:01;;;;;;;13.63;1.90;;;12.50;99.90;;;;;;5032945;28;20212;-49
2023/04/11 09:24:28;;;;;;;8.63;1.80;;;12.60;99.90;;;;;;5033304;28;20173;-50
2023/04/11 09:27:08;;;;;;;4.13;1.53;;;12.60;99.90;;;;;;5033256;28;20655;-51
2023/04/11 09:29:55;;;;;;;6.37;1.50;;;12.70;99.90;;;;;;5032971;28;20540;-51
2023/04/11 09:32:32;;;;;;;8.00;1.63;;;12.80;99.90;;;;;;5033171;28;20212;-50
2023/04/11 09:35:09;;;;;;;7.83;1.83;;;12.80;99.90;;;;;;5032839;28;20215;-50
2023/04/11 09:37:50;;;;;;;5.53;1.50;;;12.80;99.90;;;;;;5033164;28;20563;-50
2023/04/11 09:40:17;;;;;;;7.37;1.97;;;12.70;99.90;;;;;;5033142;28;20264;-51
2023/04/11 09:42:45;;;;;;;8.10;1.90;;;12.60;99.90;;;;;;5032750;28;20192;-50
2023/04/11 09:45:21;;;;;;;7.47;1.53;;;12.60;99.90;;;;;;5032917;28;20173;-49
2023/04/11 09:47:48;;;;;;;6.13;1.47;;;12.50;99.90;;;;;;5032868;28;20548;-47
2023/04/11 09:50:14;;;;;;;4.77;1.40;;;12.50;99.90;;;;;;5032915;28;20185;-49
2023/04/11 09:52:44;;;;;;;10.03;2.00;;;12.50;99.90;;;;;;5033119;28;20275;-48
2023/04/11 09:55:11;;;;;;;8.07;1.77;;;12.60;99.90;;;;;;5033121;28;20181;-49
2023/04/11 09:57:40;;;;;;;3.30;1.43;;;12.70;99.90;;;;;;5036710;28;20669;-49
2023/04/11 10:00:15;;;;;;;5.50;1.73;;;12.80;99.90;;;;;;5037004;28;20231;-50
2023/04/11 10:02:43;;;;;;;4.60;1.00;;;12.80;99.90;;;;;;5036631;28;20193;-50
2023/04/11 10:05:09;;;;;;;7.50;1.23;;;12.80;99.90;;;;;;5036495;28;20632;-49
2023/04/11 10:08:01;;;;;;;4.87;1.10;;;12.80;99.90;;;;;;5036147;28;20675;-47
2023/04/11 10:10:26;;;;;;;6.30;1.83;;;13.00;99.90;;;;;;5036073;28;20189;-48
2023/04/11 10:12:52;;;;;;;6.33;1.23;;;13.00;99.90;;;;;;5036792;28;20211;-50
2023/04/11 10:15:18;;;;;;;6.97;1.70;;;13.00;99.90;;;;;;5036442;28;20617;-50
2023/04/11 10:18:08;;;;;;;4.83;1.37;;;12.90;99.90;;;;;;5035953;28;20197;-49
2023/04/11 10:20:34;;;;;;;7.40;1.63;;;12.80;99.90;;;;;;5024457;28;20211;-51
2023/04/11 10:23:00;;;;;;;5.27;1.20;;;12.80;99.90;;;;;;5035761;28;20197;-48
2023/04/11 10:25:27;;;;;;;3.47;1.17;;;12.80;99.90;;;;;;5036106;28;20656;-49
2023/04/11 10:28:00;;;;;;;2.97;1.10;;;12.90;99.90;;;;;;5035856;28;20173;-49
2023/04/11 10:30:40;;;;;;;4.80;1.23;;;13.00;99.90;;;;;;5035999;28;20262;-48
2023/04/11 10:33:10;;;;;;;4.07;1.27;;;13.10;99.90;;;;;;5035919;28;20248;-47
2023/04/11 10:35:58;;;;;;;7.47;1.13;;;13.30;99.90;;;;;;5035924;28;20185;-49
2023/04/11 10:38:42;;;;;;;7.23;1.63;;;13.40;99.90;;;;;;5035585;28;20177;-49
2023/04/11 10:41:15;;;;;;;6.50;1.53;;;13.40;99.90;;;;;;5035484;28;20649;-48
2023/04/11 10:43:41;;;;;;;5.67;1.70;;;13.40;99.90;;;;;;5035758;28;20232;-49
2023/04/11 10:46:16;;;;;;;5.30;1.70;;;13.50;99.90;;;;;;5035491;28;20184;-49
2023/04/11 10:48:59;;;;;;;3.57;1.40;;;13.50;99.90;;;;;;5035698;28;20176;-50
2023/04/11 10:51:26;;;;;;;6.13;1.43;;;13.50;99.90;;;;;;5035550;28;20645;-50
2023/04/11 10:53:52;;;;;;;6.60;1.37;;;13.40;99.90;;;;;;5035355;28;20708;-49
2023/04/11 10:56:45;;;;;;;8.63;1.70;;;13.40;99.90;;;;;;5035223;28;20291;-50
2023/04/11 10:59:30;;;;;;;10.43;2.07;;;13.50;99.90;;;;;;5035490;28;20387;-49
2023/04/11 11:01:56;;;;;;;5.30;1.60;;;13.50;99.90;;;;;;5035334;28;20204;-50
2023/04/11 11:04:36;;;;;;;4.73;1.77;;;13.50;99.90;;;;;;5035375;28;20180;-49
2023/04/11 11:07:07;;;;;;;5.60;1.40;;;13.40;99.90;;;;;;5034943;28;20173;-49
2023/04/11 11:09:33;;;;;;;6.60;1.67;;;13.50;99.90;;;;;;5035384;28;20205;-50
2023/04/11 11:12:06;;;;;;;4.43;1.40;;;13.60;99.90;;;;;;5035044;28;20197;-49
2023/04/11 11:14:32;;;;;;;4.60;1.50;;;13.80;99.90;;;;;;5034836;28;20695;-52
2023/04/11 11:16:57;;;;;;;4.30;1.57;;;13.80;99.90;;;;;;5034795;28;20192;-53
2023/04/11 11:19:23;;;;;;;6.17;1.27;;;13.80;99.90;;;;;;5034794;28;20173;-51
2023/04/11 11:21:52;;;;;;;5.97;1.50;;;13.80;99.90;;;;;;5035003;28;20197;-52
2023/04/11 11:24:25;;;;;;;4.13;1.57;;;14.00;99.90;;;;;;5034787;28;20256;-51
2023/04/11 11:26:52;;;;;;;4.47;1.37;;;14.20;99.90;;;;;;5034681;28;20235;-52
2023/04/11 11:29:32;;;;;;;5.20;1.47;;;14.40;99.90;;;;;;5035185;28;20180;-51
2023/04/11 11:31:59;;;;;;;3.67;1.20;;;14.50;99.90;;;;;;5034591;28;20193;-51
2023/04/11 11:34:30;;;;;;;4.73;1.20;;;14.50;99.90;;;;;;5034749;28;20189;-51
2023/04/11 11:36:56;;;;;;;6.43;1.40;;;14.40;99.90;;;;;;5034686;28;20291;-52
2023/04/11 11:39:22;;;;;;;4.90;1.30;;;14.30;99.90;;;;;;5034349;28;20188;-52
2023/04/11 11:41:49;;;;;;;7.77;1.47;;;14.20;99.90;;;;;;5034584;28;20188;-51
2023/04/11 11:44:28;;;;;;;3.03;1.10;;;14.10;99.90;;;;;;5034581;28;20259;-51
2023/04/11 11:47:03;;;;;;;6.40;1.83;;;14.30;99.90;;;;;;5034332;28;20173;-52
2023/04/11 11:49:49;;;;;;;7.13;1.40;;;14.50;99.90;;;;;;5034334;28;20180;-52
2023/04/11 11:52:32;;;;;;;4.37;1.20;;;14.70;99.90;;;;;;5034439;28;20204;-51
2023/04/11 11:54:57;;;;;;;2.37;1.23;;;14.90;99.90;;;;;;5034141;28;20589;-52
2023/04/11 11:57:23;;;;;;;4.47;1.53;;;14.90;99.90;;;;;;5034318;28;20205;-51
2023/04/11 11:59:56;;;;;;;3.53;1.13;;;14.80;99.90;;;;;;5034154;28;20667;-52
2023/04/11 12:02:22;;;;;;;3.13;1.20;;;14.90;99.90;;;;;;5034491;28;20193;-51
2023/04/11 12:04:48;;;;;;;7.00;1.40;;;15.00;99.90;;;;;;5034238;28;20201;-51
2023/04/11 12:07:20;;;;;;;5.30;1.60;;;15.10;99.90;;;;;;5033978;28;20204;-52
2023/04/11 12:09:49;;;;;;;5.07;1.47;;;15.10;99.90;;;;;;5034157;28;20250;-50
2023/04/11 12:12:16;;;;;;;4.27;1.73;;;15.10;99.90;;;;;;5034036;28;20209;-50
2023/04/11 12:14:52;;;;;;;6.70;1.67;;;15.10;99.90;;;;;;5033712;28;20621;-52
2023/04/11 12:17:17;;;;;;;3.73;1.10;;;15.20;99.90;;;;;;5033662;28;20656;-52
2023/04/11 12:19:43;;;;;;;7.00;1.10;;;15.20;99.90;;;;;;5015886;28;20188;-51
2023/04/11 12:22:09;;;;;;;3.47;1.10;;;15.40;99.90;;;;;;5033671;28;20189;-51
2023/04/11 12:24:34;;;;;;;6.37;1.20;;;15.50;99.90;;;;;;5033640;28;20668;-51
2023/04/11 12:27:00;;;;;;;4.97;1.57;;;15.60;99.90;;;;;;5033914;28;20608;-51
2023/04/11 12:29:25;;;;;;;3.60;1.00;;;15.50;99.90;;;;;;5033805;28;20192;-52
2023/04/11 12:31:51;;;;;;;2.83;1.30;;;15.60;99.90;;;;;;5033470;28;20227;-51
2023/04/11 12:34:16;;;;;;;5.70;1.33;;;15.70;99.90;;;;;;5033748;28;20184;-51
2023/04/11 12:36:42;;;;;;;4.43;1.20;;;15.70;99.90;;;;;;5033391;28;20205;-52
2023/04/11 12:39:08;;;;;;;5.17;1.23;;;15.60;99.90;;;;;;5033389;28;20295;-51
2023/04/11 12:41:34;;;;;;;3.97;1.10;;;15.60;99.90;;;;;;5033405;28;20239;-51
2023/04/11 12:44:01;;;;;;;6.37;1.50;;;15.70;99.90;;;;;;5033467;28;20177;-50
2023/04/11 12:46:26;;;;;;;4.67;1.23;;;15.70;99.90;;;;;;5033592;28;20242;-51
2023/04/11 12:48:52;;;;;;;9.37;1.87;;;15.80;99.90;;;;;;5033554;28;20185;-50